createdAt,value
2022-11-25T00:00:29.921Z,2.30
2022-11-25T00:02:56.820Z,2.40
2022-11-25T00:05:25.792Z,2.30
2022-11-25T00:07:52.559Z,2.30
2022-11-25T00:10:19.418Z,2.30
2022-11-25T00:12:46.008Z,2.30
2022-11-25T00:15:12.660Z,2.30
2022-11-25T00:17:39.480Z,2.30
2022-11-25T00:20:06.836Z,2.30
2022-11-25T00:22:33.685Z,2.30
2022-11-25T00:25:00.518Z,2.30
2022-11-25T00:27:27.100Z,2.30
2022-11-25T00:29:53.740Z,2.30
2022-11-25T00:32:20.428Z,2.30
2022-11-25T00:34:47.583Z,2.30
2022-11-25T00:37:14.941Z,2.30
2022-11-25T00:39:41.968Z,2.30
2022-11-25T00:42:28.955Z,2.30
2022-11-25T00:44:55.615Z,2.40
2022-11-25T00:47:22.384Z,2.40
2022-11-25T00:49:54.891Z,2.40
2022-11-25T00:52:26.499Z,2.40
2022-11-25T00:54:54.020Z,2.40
2022-11-25T00:57:23.361Z,2.40
2022-11-25T00:59:50.592Z,2.40
2022-11-25T01:02:18.879Z,2.40
2022-11-25T01:04:46.486Z,2.40
2022-11-25T01:07:15.902Z,2.40
2022-11-25T01:09:42.708Z,2.40
2022-11-25T01:12:09.353Z,2.40
2022-11-25T01:14:36.753Z,2.40
2022-11-25T01:17:04.127Z,2.50
2022-11-25T01:19:32.978Z,2.50
2022-11-25T01:22:00.224Z,2.50
2022-11-25T01:24:26.894Z,2.50
2022-11-25T01:26:54.544Z,2.50
2022-11-25T01:29:22.521Z,2.40
2022-11-25T01:31:49.870Z,2.50
2022-11-25T01:34:22.929Z,2.40
2022-11-25T01:36:49.854Z,2.40
2022-11-25T01:39:30.396Z,2.40
2022-11-25T01:42:00.226Z,2.40
2022-11-25T01:44:28.925Z,2.40
2022-11-25T01:47:25.788Z,2.40
2022-11-25T01:50:03.563Z,2.40
2022-11-25T01:52:38.063Z,2.40
2022-11-25T01:55:13.346Z,2.40
2022-11-25T01:57:50.604Z,2.40
2022-11-25T02:00:18.310Z,2.40
2022-11-25T02:02:47.620Z,2.40
2022-11-25T02:05:19.494Z,2.40
2022-11-25T02:07:51.037Z,2.40
2022-11-25T02:10:27.336Z,2.30
2022-11-25T02:12:54.842Z,2.40
2022-11-25T02:15:22.135Z,2.30
2022-11-25T02:17:49.401Z,2.30
2022-11-25T02:20:22.535Z,2.30
2022-11-25T02:23:25.627Z,2.30
2022-11-25T02:25:54.847Z,2.30
2022-11-25T02:28:30.579Z,2.30
2022-11-25T02:30:58.124Z,2.30
2022-11-25T02:33:25.940Z,2.30
2022-11-25T02:35:59.837Z,2.20
2022-11-25T02:38:45.092Z,2.30
2022-11-25T02:41:22.555Z,2.30
2022-11-25T02:43:55.406Z,2.30
2022-11-25T02:46:25.059Z,2.40
2022-11-25T02:49:08.383Z,2.40
2022-11-25T02:51:37.730Z,2.50
2022-11-25T02:54:04.721Z,2.50
2022-11-25T02:56:34.563Z,2.50
2022-11-25T02:59:01.863Z,2.60
2022-11-25T03:01:31.393Z,2.50
2022-11-25T03:03:58.720Z,2.60
2022-11-25T03:06:27.760Z,2.60
2022-11-25T03:08:55.069Z,2.60
2022-11-25T03:11:42.003Z,2.60
2022-11-25T03:14:09.308Z,2.60
2022-11-25T03:16:35.929Z,2.60
2022-11-25T03:19:04.184Z,2.60
2022-11-25T03:21:30.896Z,2.60
2022-11-25T03:23:58.078Z,2.60
2022-11-25T03:26:26.047Z,2.60
2022-11-25T03:28:52.936Z,2.60
2022-11-25T03:31:19.784Z,2.60
2022-11-25T03:33:46.684Z,2.60
2022-11-25T03:36:13.432Z,2.60
2022-11-25T03:38:40.108Z,2.60
2022-11-25T03:41:07.124Z,2.60
2022-11-25T03:43:35.588Z,2.60
2022-11-25T03:46:02.628Z,2.60
2022-11-25T03:48:29.431Z,2.60
2022-11-25T03:50:56.338Z,2.60
2022-11-25T03:53:24.854Z,2.60
2022-11-25T03:55:52.155Z,2.60
2022-11-25T03:58:21.808Z,2.60
2022-11-25T04:00:50.134Z,2.70
2022-11-25T04:03:17.340Z,2.70
2022-11-25T04:05:44.294Z,2.70
2022-11-25T04:08:12.173Z,2.70
2022-11-25T04:10:39.547Z,2.70
2022-11-25T04:13:06.897Z,2.70
2022-11-25T04:15:37.721Z,2.60
2022-11-25T04:18:05.687Z,2.70
2022-11-25T04:20:33.583Z,2.60
2022-11-25T04:23:06.291Z,2.60
2022-11-25T04:25:36.664Z,2.60
2022-11-25T04:28:11.753Z,2.60
2022-11-25T04:30:38.620Z,2.60
2022-11-25T04:33:05.767Z,2.70
2022-11-25T04:35:32.971Z,2.60
2022-11-25T04:37:59.699Z,2.60
2022-11-25T04:40:27.229Z,2.60
2022-11-25T04:43:10.774Z,2.70
2022-11-25T04:48:29.159Z,2.70
2022-11-25T04:50:56.146Z,2.70
2022-11-25T04:53:22.962Z,2.70
2022-11-25T04:55:49.639Z,2.70
2022-11-25T04:58:39.493Z,2.70
2022-11-25T05:01:06.623Z,2.70
2022-11-25T05:03:34.311Z,2.80
2022-11-25T05:06:07.160Z,2.80
2022-11-25T05:08:36.172Z,2.90
2022-11-25T05:11:03.053Z,2.90
2022-11-25T05:13:29.923Z,2.90
2022-11-25T05:15:59.890Z,3.00
2022-11-25T05:18:26.746Z,3.00
2022-11-25T05:20:53.391Z,3.00
2022-11-25T05:23:21.613Z,3.00
2022-11-25T05:25:49.052Z,3.00
2022-11-25T05:28:38.796Z,2.90
2022-11-25T05:31:06.032Z,2.90
2022-11-25T05:33:32.843Z,3.00
2022-11-25T05:36:01.067Z,3.00
2022-11-25T05:38:34.599Z,2.90
2022-11-25T05:41:06.292Z,2.90
2022-11-25T05:43:33.616Z,2.90
2022-11-25T05:46:05.795Z,2.90
2022-11-25T05:48:34.540Z,2.90
2022-11-25T05:51:03.076Z,2.90
2022-11-25T05:53:31.413Z,2.90
2022-11-25T05:56:00.893Z,2.80
2022-11-25T05:58:46.716Z,2.90
2022-11-25T06:01:16.112Z,2.90
2022-11-25T06:03:44.802Z,2.90
2022-11-25T06:06:11.860Z,2.90
2022-11-25T06:08:39.598Z,2.90
2022-11-25T06:11:08.994Z,2.80
2022-11-25T06:13:37.046Z,2.80
2022-11-25T06:16:12.981Z,2.90
2022-11-25T06:18:39.908Z,2.80
2022-11-25T06:21:10.325Z,2.80
2022-11-25T06:23:38.068Z,2.80
2022-11-25T06:26:21.789Z,2.80
2022-11-25T06:28:52.319Z,2.80
2022-11-25T06:31:21.126Z,2.80
2022-11-25T06:33:57.442Z,2.80
2022-11-25T06:36:24.998Z,2.80
2022-11-25T06:38:52.676Z,2.90
2022-11-25T06:41:20.938Z,2.90
2022-11-25T06:43:47.688Z,2.90
2022-11-25T06:46:18.555Z,2.90
2022-11-25T06:48:49.973Z,2.90
2022-11-25T06:51:17.028Z,2.90
2022-11-25T06:53:43.778Z,2.90
2022-11-25T06:56:10.418Z,3.00
2022-11-25T06:58:38.220Z,3.00
2022-11-25T07:01:11.505Z,3.00
2022-11-25T07:03:38.888Z,3.00
2022-11-25T07:06:05.761Z,3.00
2022-11-25T07:08:34.320Z,3.00
2022-11-25T07:11:12.825Z,3.00
2022-11-25T07:13:39.581Z,3.00
2022-11-25T07:16:06.747Z,3.10
2022-11-25T07:18:36.092Z,3.10
2022-11-25T07:21:33.221Z,3.10
2022-11-25T07:24:02.020Z,3.10
2022-11-25T07:26:38.270Z,3.20
2022-11-25T07:29:18.224Z,3.20
2022-11-25T07:31:54.036Z,3.20
2022-11-25T07:34:21.470Z,3.20
2022-11-25T07:36:49.705Z,3.20
2022-11-25T07:39:22.327Z,3.30
2022-11-25T07:41:53.674Z,3.30
2022-11-25T07:44:21.441Z,3.30
2022-11-25T07:47:06.860Z,3.40
2022-11-25T07:49:33.433Z,3.50
2022-11-25T07:52:00.536Z,3.50
2022-11-25T07:54:27.399Z,3.60
2022-11-25T07:56:54.005Z,3.60
2022-11-25T07:59:22.726Z,3.70
2022-11-25T08:01:51.649Z,3.70
2022-11-25T08:04:20.782Z,3.80
2022-11-25T08:06:49.924Z,3.90
2022-11-25T08:09:20.129Z,4.00
2022-11-25T08:11:48.037Z,4.00
2022-11-25T08:14:15.767Z,4.10
2022-11-25T08:16:42.565Z,4.20
2022-11-25T08:19:11.554Z,4.20
2022-11-25T08:21:38.402Z,4.30
2022-11-25T08:24:05.309Z,4.40
2022-11-25T08:26:36.562Z,4.40
2022-11-25T08:29:06.589Z,4.50
2022-11-25T08:31:36.194Z,4.50
2022-11-25T08:34:03.904Z,4.60
2022-11-25T08:36:31.640Z,4.60
2022-11-25T08:39:00.120Z,4.70
2022-11-25T08:41:33.143Z,4.80
2022-11-25T08:44:02.014Z,4.90
2022-11-25T08:46:34.107Z,5.00
2022-11-25T08:49:01.032Z,5.00
2022-11-25T08:51:29.048Z,5.10
2022-11-25T08:53:55.885Z,5.20
2022-11-25T08:56:26.227Z,5.30
2022-11-25T08:58:54.543Z,5.40
2022-11-25T09:01:22.321Z,5.50
2022-11-25T09:03:50.581Z,5.70
2022-11-25T09:06:17.553Z,5.80
2022-11-25T09:08:45.044Z,5.90
2022-11-25T09:11:12.393Z,6.00
2022-11-25T09:13:39.261Z,6.10
2022-11-25T09:16:06.924Z,6.20
2022-11-25T09:18:35.280Z,6.30
2022-11-25T09:21:09.675Z,6.40
2022-11-25T09:23:38.430Z,6.60
2022-11-25T09:26:06.547Z,6.70
2022-11-25T09:28:34.625Z,6.80
2022-11-25T09:31:08.225Z,6.90
2022-11-25T09:33:35.563Z,7.00
2022-11-25T09:36:03.418Z,7.10
2022-11-25T09:38:30.863Z,7.30
2022-11-25T09:41:07.268Z,7.40
2022-11-25T09:44:40.040Z,7.50
2022-11-25T09:47:32.658Z,7.70
2022-11-25T09:50:29.793Z,7.80
2022-11-25T09:53:27.021Z,7.90
2022-11-25T09:56:01.498Z,7.90
2022-11-25T09:58:44.473Z,8.00
2022-11-25T10:01:18.282Z,8.10
2022-11-25T10:03:49.011Z,8.10
2022-11-25T10:06:28.699Z,8.10
2022-11-25T10:08:58.740Z,8.20
2022-11-25T10:11:58.018Z,8.30
2022-11-25T10:14:28.387Z,8.40
2022-11-25T10:17:01.489Z,8.40
2022-11-25T10:19:28.407Z,8.60
2022-11-25T10:21:56.262Z,8.60
2022-11-25T10:24:24.398Z,8.70
2022-11-25T10:27:01.225Z,8.80
2022-11-25T10:29:29.996Z,8.80
2022-11-25T10:32:28.077Z,8.90
2022-11-25T10:35:01.302Z,8.90
2022-11-25T10:37:33.815Z,8.90
2022-11-25T10:40:00.547Z,8.90
2022-11-25T10:42:28.558Z,8.90
2022-11-25T10:44:55.729Z,8.90
2022-11-25T10:47:44.423Z,8.90
2022-11-25T10:50:38.866Z,8.90
2022-11-25T10:53:08.557Z,8.90
2022-11-25T10:55:35.620Z,8.90
2022-11-25T10:58:33.176Z,8.90
2022-11-25T11:01:25.587Z,9.00
2022-11-25T11:04:05.700Z,9.00
2022-11-25T11:06:36.569Z,9.00
2022-11-25T11:09:04.011Z,9.00
2022-11-25T11:11:31.637Z,9.00
2022-11-25T11:14:21.661Z,9.10
2022-11-25T11:16:54.305Z,9.20
2022-11-25T11:19:26.963Z,9.30
2022-11-25T11:21:56.620Z,9.30
2022-11-25T11:24:35.357Z,9.50
2022-11-25T11:27:20.481Z,9.60
2022-11-25T11:29:47.260Z,9.60
2022-11-25T11:32:22.367Z,9.70
2022-11-25T11:35:23.004Z,9.80
2022-11-25T11:37:54.528Z,9.90
2022-11-25T11:40:46.425Z,9.90
2022-11-25T11:43:36.693Z,10.00
2022-11-25T11:46:30.158Z,10.00
2022-11-25T11:49:15.160Z,10.00
2022-11-25T11:52:08.227Z,10.00
2022-11-25T11:54:40.506Z,10.00
2022-11-25T11:57:11.062Z,10.00
2022-11-25T11:59:40.577Z,10.00
2022-11-25T12:02:26.115Z,10.10
2022-11-25T12:05:15.694Z,10.10
2022-11-25T12:08:23.190Z,10.10
2022-11-25T12:11:25.441Z,10.10
2022-11-25T12:14:24.996Z,10.10
2022-11-25T12:17:01.961Z,10.00
2022-11-25T12:19:50.691Z,10.00
2022-11-25T12:22:32.343Z,9.90
2022-11-25T12:25:06.205Z,9.80
2022-11-25T12:27:44.274Z,9.80
2022-11-25T12:30:16.270Z,9.80
2022-11-25T12:33:06.326Z,9.70
2022-11-25T12:35:51.246Z,9.70
2022-11-25T12:38:30.491Z,9.60
2022-11-25T12:41:12.392Z,9.50
2022-11-25T12:44:12.764Z,9.40
2022-11-25T12:46:50.684Z,9.40
2022-11-25T12:49:30.190Z,9.30
2022-11-25T12:52:02.846Z,9.30
2022-11-25T12:54:54.673Z,9.20
2022-11-25T12:57:33.551Z,9.10
2022-11-25T13:04:00.660Z,9.00
2022-11-25T13:06:38.765Z,9.00
2022-11-25T13:09:11.644Z,8.90
2022-11-25T13:12:00.351Z,8.90
2022-11-25T13:14:40.040Z,8.90
2022-11-25T13:17:13.975Z,8.80
2022-11-25T13:19:41.570Z,8.80
2022-11-25T13:22:29.694Z,8.80
2022-11-25T13:24:58.321Z,8.80
2022-11-25T13:27:40.015Z,8.70
2022-11-25T13:30:32.669Z,8.70
2022-11-25T13:33:11.691Z,8.70
2022-11-25T13:35:49.282Z,8.60
2022-11-25T13:38:36.308Z,8.60
2022-11-25T13:41:25.228Z,8.60
2022-11-25T13:44:18.932Z,8.60
2022-11-25T13:46:53.535Z,8.50
2022-11-25T13:49:53.958Z,8.50
2022-11-25T13:52:20.557Z,8.40
2022-11-25T13:54:53.553Z,8.40
2022-11-25T13:57:27.350Z,8.40
2022-11-25T13:59:58.101Z,8.30
2022-11-25T14:02:27.687Z,8.20
2022-11-25T14:05:04.844Z,8.20
2022-11-25T14:08:07.739Z,8.10
2022-11-25T14:11:12.207Z,8.00
2022-11-25T14:14:01.378Z,7.90
2022-11-25T14:16:55.154Z,7.90
2022-11-25T14:19:52.027Z,7.70
2022-11-25T14:22:28.243Z,7.60
2022-11-25T14:25:09.876Z,7.50
2022-11-25T14:27:36.866Z,7.40
2022-11-25T14:30:08.104Z,7.30
2022-11-25T14:32:40.450Z,7.20
2022-11-25T14:35:13.815Z,7.10
2022-11-25T14:37:59.489Z,7.00
2022-11-25T14:40:36.579Z,7.00
2022-11-25T14:43:07.884Z,6.90
2022-11-25T14:45:35.664Z,6.90
2022-11-25T14:48:18.870Z,6.90
2022-11-25T14:51:00.864Z,6.90
2022-11-25T14:53:29.861Z,6.90
2022-11-25T14:56:00.102Z,6.80
2022-11-25T14:58:27.494Z,6.80
2022-11-25T15:01:16.568Z,6.80
2022-11-25T15:03:45.850Z,6.80
2022-11-25T15:06:14.340Z,6.70
2022-11-25T15:08:43.822Z,6.70
2022-11-25T15:11:20.970Z,6.70
2022-11-25T15:13:55.248Z,6.70
2022-11-25T15:16:26.092Z,6.60
2022-11-25T15:19:01.625Z,6.60
2022-11-25T15:21:53.762Z,6.60
2022-11-25T15:24:32.706Z,6.60
2022-11-25T15:27:02.485Z,6.60
2022-11-25T15:29:31.291Z,6.60
2022-11-25T15:31:59.897Z,6.60
2022-11-25T15:34:29.395Z,6.60
2022-11-25T15:36:56.250Z,6.60
2022-11-25T15:39:27.663Z,6.60
2022-11-25T15:42:16.107Z,6.50
2022-11-25T15:44:54.641Z,6.50
2022-11-25T15:47:31.094Z,6.50
2022-11-25T15:50:07.408Z,6.50
2022-11-25T15:52:37.595Z,6.50
2022-11-25T15:55:31.691Z,6.40
2022-11-25T15:58:23.529Z,6.40
2022-11-25T16:01:06.082Z,6.40
2022-11-25T16:03:35.178Z,6.40
2022-11-25T16:06:02.925Z,6.30
2022-11-25T16:08:37.249Z,6.30
2022-11-25T16:11:20.721Z,6.30
2022-11-25T16:13:49.278Z,6.30
2022-11-25T16:16:22.013Z,6.30
2022-11-25T16:19:04.899Z,6.30
2022-11-25T16:21:40.040Z,6.30
2022-11-25T16:24:06.849Z,6.30
2022-11-25T16:26:36.225Z,6.30
2022-11-25T16:29:14.722Z,6.30
2022-11-25T16:31:41.748Z,6.20
2022-11-25T16:34:17.066Z,6.20
2022-11-25T16:36:43.919Z,6.20
2022-11-25T16:39:10.489Z,6.20
2022-11-25T16:41:37.815Z,6.20
2022-11-25T16:44:12.408Z,6.20
2022-11-25T16:46:39.331Z,6.20
2022-11-25T16:49:13.711Z,6.20
2022-11-25T16:51:40.566Z,6.20
2022-11-25T16:54:07.233Z,6.20
2022-11-25T16:56:37.080Z,6.20
2022-11-25T16:59:04.609Z,6.20
2022-11-25T17:01:34.190Z,6.10
2022-11-25T17:04:00.946Z,6.10
2022-11-25T17:06:30.456Z,6.10
2022-11-25T17:08:57.158Z,6.10
2022-11-25T17:11:35.464Z,6.10
2022-11-25T17:14:11.539Z,6.10
2022-11-25T17:16:41.203Z,6.10
2022-11-25T17:19:13.534Z,6.10
2022-11-25T17:21:40.234Z,6.10
2022-11-25T17:24:15.168Z,6.10
2022-11-25T17:26:43.834Z,6.10
2022-11-25T17:29:16.965Z,6.10
2022-11-25T17:31:44.658Z,6.10
2022-11-25T17:34:16.738Z,6.10
2022-11-25T17:36:45.045Z,6.10
2022-11-25T17:39:15.254Z,6.10
2022-11-25T17:41:47.415Z,6.10
2022-11-25T17:44:26.559Z,6.00
2022-11-25T17:46:54.908Z,6.00
2022-11-25T17:49:22.370Z,6.00
2022-11-25T17:51:49.443Z,6.00
2022-11-25T17:54:16.721Z,6.00
2022-11-25T17:56:50.747Z,6.00
2022-11-25T17:59:32.644Z,6.00
2022-11-25T18:01:59.782Z,6.00
2022-11-25T18:04:30.997Z,6.00
2022-11-25T18:06:57.718Z,6.00
2022-11-25T18:09:24.412Z,6.00
2022-11-25T18:11:55.923Z,6.00
2022-11-25T18:14:28.236Z,6.00
2022-11-25T18:16:56.051Z,6.00
2022-11-25T18:19:22.923Z,6.00
2022-11-25T18:21:49.862Z,6.00
2022-11-25T18:24:16.439Z,6.00
2022-11-25T18:26:49.019Z,6.00
2022-11-25T18:29:23.446Z,6.00
2022-11-25T18:31:52.283Z,5.90
2022-11-25T18:34:19.154Z,5.90
2022-11-25T18:36:45.996Z,6.00
2022-11-25T18:39:13.709Z,5.90
2022-11-25T18:41:41.542Z,5.90
2022-11-25T18:44:25.905Z,5.80
2022-11-25T18:46:53.573Z,5.80
2022-11-25T18:49:20.874Z,5.80
2022-11-25T18:51:47.677Z,5.70
2022-11-25T18:54:14.491Z,5.70
2022-11-25T18:56:41.989Z,5.70
2022-11-25T18:59:14.868Z,5.70
2022-11-25T19:01:45.349Z,5.60
2022-11-25T19:04:16.181Z,5.60
2022-11-25T19:06:43.501Z,5.60
2022-11-25T19:09:10.932Z,5.50
2022-11-25T19:11:42.413Z,5.40
2022-11-25T19:14:34.693Z,5.40
2022-11-25T19:17:08.147Z,5.30
2022-11-25T19:19:37.643Z,5.30
2022-11-25T19:22:11.098Z,5.30
2022-11-25T19:24:38.073Z,5.30
2022-11-25T19:27:05.060Z,5.20
2022-11-25T19:29:42.043Z,5.20
2022-11-25T19:32:29.310Z,5.20
2022-11-25T19:35:04.027Z,5.20
2022-11-25T19:37:31.068Z,5.20
2022-11-25T19:39:57.968Z,5.20
2022-11-25T19:42:25.828Z,5.10
2022-11-25T19:44:55.453Z,5.10
2022-11-25T19:47:26.635Z,5.10
2022-11-25T19:49:57.067Z,5.10
2022-11-25T19:52:31.592Z,5.10
2022-11-25T19:54:58.530Z,5.10
2022-11-25T19:57:25.240Z,5.10
2022-11-25T19:59:52.169Z,5.10
2022-11-25T20:02:21.685Z,5.20
2022-11-25T20:04:50.708Z,5.20
2022-11-25T20:07:20.576Z,5.20
2022-11-25T20:09:48.096Z,5.20
2022-11-25T20:12:26.757Z,5.20
2022-11-25T20:14:53.503Z,5.20
2022-11-25T20:17:25.638Z,5.20
2022-11-25T20:19:55.688Z,5.20
2022-11-25T20:22:28.844Z,5.20
2022-11-25T20:24:56.784Z,5.20
2022-11-25T20:27:27.052Z,5.20
2022-11-25T20:29:54.506Z,5.20
2022-11-25T20:32:34.080Z,5.20
2022-11-25T20:35:00.879Z,5.20
2022-11-25T20:37:40.288Z,5.20
2022-11-25T20:40:20.409Z,5.20
2022-11-25T20:42:49.234Z,5.20
2022-11-25T20:45:18.671Z,5.20
2022-11-25T20:47:46.969Z,5.20
2022-11-25T20:50:14.217Z,5.20
2022-11-25T20:52:42.350Z,5.20
2022-11-25T20:55:23.837Z,5.20
2022-11-25T20:57:51.984Z,5.20
2022-11-25T21:00:24.956Z,5.30
2022-11-25T21:02:53.350Z,5.30
2022-11-25T21:05:20.962Z,5.30
2022-11-25T21:07:49.982Z,5.30
2022-11-25T21:10:28.731Z,5.30
2022-11-25T21:12:56.574Z,5.30
2022-11-25T21:15:25.534Z,5.30
2022-11-25T21:17:52.214Z,5.30
2022-11-25T21:20:19.774Z,5.30
2022-11-25T21:22:49.800Z,5.30
2022-11-25T21:25:21.953Z,5.30
2022-11-25T21:27:50.268Z,5.30
2022-11-25T21:30:19.411Z,5.30
2022-11-25T21:32:46.661Z,5.30
2022-11-25T21:35:14.790Z,5.30
2022-11-25T21:37:44.320Z,5.30
2022-11-25T21:40:23.093Z,5.30
2022-11-25T21:42:49.873Z,5.30
2022-11-25T21:45:17.227Z,5.30
2022-11-25T21:47:43.889Z,5.30
2022-11-25T21:50:14.391Z,5.30
2022-11-25T21:52:41.226Z,5.30
2022-11-25T21:55:11.752Z,5.30
2022-11-25T21:57:39.508Z,5.30
2022-11-25T22:00:21.611Z,5.20
2022-11-25T22:02:48.545Z,5.20
2022-11-25T22:05:20.402Z,5.20
2022-11-25T22:07:47.940Z,5.20
2022-11-25T22:10:16.529Z,5.20
2022-11-25T22:12:46.071Z,5.20
2022-11-25T22:15:21.605Z,5.10
2022-11-25T22:17:50.760Z,5.10
2022-11-25T22:20:36.158Z,5.10
2022-11-25T22:23:10.584Z,5.10
2022-11-25T22:25:37.341Z,5.10
2022-11-25T22:28:04.292Z,5.10
2022-11-25T22:30:31.008Z,5.10
2022-11-25T22:33:01.491Z,5.10
2022-11-25T22:35:28.404Z,5.00
2022-11-25T22:37:55.641Z,5.10
2022-11-25T22:40:23.330Z,5.10
2022-11-25T22:42:51.119Z,5.10
2022-11-25T22:45:30.990Z,5.10
2022-11-25T22:47:59.356Z,5.10
2022-11-25T22:50:33.715Z,5.10
2022-11-25T22:53:01.016Z,5.10
2022-11-25T22:55:33.224Z,5.10
2022-11-25T22:58:01.614Z,5.10
2022-11-25T23:00:38.375Z,5.10
2022-11-25T23:03:07.430Z,5.20
2022-11-25T23:05:36.214Z,5.20
2022-11-25T23:08:12.057Z,5.20
2022-11-25T23:10:38.843Z,5.20
2022-11-25T23:13:05.403Z,5.30
2022-11-25T23:15:32.283Z,5.20
2022-11-25T23:18:01.428Z,5.20
2022-11-25T23:20:32.715Z,5.30
2022-11-25T23:23:16.747Z,5.30
2022-11-25T23:25:44.313Z,5.20
2022-11-25T23:28:11.398Z,5.20
2022-11-25T23:30:40.844Z,5.20
2022-11-25T23:33:37.951Z,5.20
2022-11-25T23:36:23.606Z,5.20
2022-11-25T23:39:01.816Z,5.30
2022-11-25T23:41:31.056Z,5.30
2022-11-25T23:44:05.891Z,5.30
2022-11-25T23:46:34.581Z,5.20
2022-11-25T23:49:03.844Z,5.20
2022-11-25T23:51:30.948Z,5.30
2022-11-25T23:53:58.795Z,5.20
2022-11-25T23:56:27.931Z,5.20
2022-11-25T23:58:54.610Z,5.20
